createdAt,value
2023-03-18T00:01:51.013Z,10.93
2023-03-18T00:04:19.343Z,10.88
2023-03-18T00:06:48.987Z,10.86
2023-03-18T00:09:17.698Z,10.77
2023-03-18T00:11:47.126Z,10.67
2023-03-18T00:14:16.153Z,10.63
2023-03-18T00:16:44.530Z,10.60
2023-03-18T00:19:13.123Z,10.64
2023-03-18T00:21:41.475Z,10.68
2023-03-18T00:24:11.934Z,10.68
2023-03-18T00:26:40.391Z,10.67
2023-03-18T00:29:08.971Z,10.66
2023-03-18T00:31:38.262Z,10.63
2023-03-18T00:34:08.025Z,10.55
2023-03-18T00:36:36.516Z,10.51
2023-03-18T00:39:04.863Z,10.53
2023-03-18T00:41:36.426Z,10.58
2023-03-18T00:44:06.334Z,10.57
2023-03-18T00:46:37.008Z,10.58
2023-03-18T00:49:06.842Z,10.50
2023-03-18T00:51:37.582Z,10.48
2023-03-18T00:54:08.082Z,10.40
2023-03-18T00:56:38.663Z,10.39
2023-03-18T00:59:07.176Z,10.41
2023-03-18T01:01:35.784Z,10.43
2023-03-18T01:04:04.437Z,10.43
2023-03-18T01:06:35.867Z,10.44
2023-03-18T01:09:05.768Z,10.43
2023-03-18T01:11:34.362Z,10.29
2023-03-18T01:14:04.676Z,10.26
2023-03-18T01:16:33.063Z,10.21
2023-03-18T01:19:01.400Z,10.18
2023-03-18T01:21:29.797Z,10.17
2023-03-18T01:24:00.408Z,10.19
2023-03-18T01:26:28.498Z,10.21
2023-03-18T01:28:57.036Z,10.25
2023-03-18T01:31:27.003Z,10.17
2023-03-18T01:33:56.115Z,10.08
2023-03-18T01:36:25.151Z,9.97
2023-03-18T01:38:53.465Z,9.91
2023-03-18T01:41:21.783Z,9.85
2023-03-18T01:43:50.090Z,9.79
2023-03-18T01:46:35.953Z,9.74
2023-03-18T01:49:07.624Z,9.66
2023-03-18T01:51:37.731Z,9.55
2023-03-18T01:54:07.985Z,9.51
2023-03-18T01:56:38.418Z,9.46
2023-03-18T01:59:07.968Z,9.43
2023-03-18T02:01:48.894Z,9.41
2023-03-18T02:04:18.082Z,9.46
2023-03-18T02:06:46.465Z,9.50
2023-03-18T02:09:14.991Z,9.50
2023-03-18T02:11:46.438Z,9.46
2023-03-18T02:14:16.580Z,9.43
2023-03-18T02:16:49.600Z,9.39
2023-03-18T02:19:28.478Z,9.38
2023-03-18T02:22:03.711Z,9.39
2023-03-18T02:24:39.898Z,9.42
2023-03-18T02:27:18.443Z,9.48
2023-03-18T02:29:47.260Z,9.48
2023-03-18T02:32:16.638Z,9.47
2023-03-18T02:34:46.093Z,9.51
2023-03-18T02:37:14.477Z,9.51
2023-03-18T02:39:42.722Z,9.50
2023-03-18T02:42:13.099Z,9.45
2023-03-18T02:44:45.266Z,9.39
2023-03-18T02:47:15.778Z,9.35
2023-03-18T02:49:44.686Z,9.31
2023-03-18T02:52:13.172Z,9.35
2023-03-18T02:54:42.058Z,9.35
2023-03-18T02:57:10.519Z,9.39
2023-03-18T02:59:38.822Z,9.41
2023-03-18T03:02:08.592Z,9.46
2023-03-18T03:04:36.960Z,9.51
2023-03-18T03:07:05.266Z,9.56
2023-03-18T03:09:33.568Z,9.57
2023-03-18T03:12:02.433Z,9.58
2023-03-18T03:14:30.842Z,9.58
2023-03-18T03:16:59.127Z,9.62
2023-03-18T03:19:29.068Z,9.68
2023-03-18T03:21:57.358Z,9.74
2023-03-18T03:24:25.828Z,9.82
2023-03-18T03:26:54.250Z,9.86
2023-03-18T03:29:22.706Z,9.84
2023-03-18T03:31:51.110Z,9.87
2023-03-18T03:34:19.576Z,9.90
2023-03-18T03:36:49.968Z,9.90
2023-03-18T03:39:19.084Z,9.90
2023-03-18T03:41:47.298Z,9.91
2023-03-18T03:44:15.611Z,9.98
2023-03-18T03:46:43.926Z,9.99
2023-03-18T03:49:12.272Z,10.01
2023-03-18T03:51:40.551Z,10.01
2023-03-18T03:54:10.218Z,9.99
2023-03-18T03:56:38.579Z,10.04
2023-03-18T03:59:07.017Z,9.98
2023-03-18T04:01:36.485Z,9.98
2023-03-18T04:04:05.505Z,9.93
2023-03-18T04:06:34.535Z,9.82
2023-03-18T04:09:03.619Z,9.74
2023-03-18T04:11:33.824Z,9.74
2023-03-18T04:14:02.417Z,9.71
2023-03-18T04:16:30.846Z,9.64
2023-03-18T04:18:59.186Z,9.68
2023-03-18T04:21:27.489Z,9.68
2023-03-18T04:23:56.595Z,9.77
2023-03-18T04:26:24.925Z,9.78
2023-03-18T04:28:54.586Z,9.81
2023-03-18T04:31:22.935Z,9.82
2023-03-18T04:33:51.227Z,9.85
2023-03-18T04:36:19.510Z,9.85
2023-03-18T04:38:47.780Z,9.87
2023-03-18T04:41:16.044Z,9.89
2023-03-18T04:43:44.782Z,9.92
2023-03-18T04:46:15.049Z,9.99
2023-03-18T04:48:43.472Z,10.10
2023-03-18T04:51:12.592Z,10.17
2023-03-18T04:53:40.947Z,10.18
2023-03-18T04:56:09.830Z,10.26
2023-03-18T04:58:38.114Z,10.32
2023-03-18T05:01:06.717Z,10.32
2023-03-18T05:03:36.484Z,10.36
2023-03-18T05:06:05.187Z,10.37
2023-03-18T05:08:33.569Z,10.39
2023-03-18T05:11:02.141Z,10.40
2023-03-18T05:13:30.402Z,10.39
2023-03-18T05:15:59.148Z,10.43
2023-03-18T05:18:27.523Z,10.40
2023-03-18T05:20:57.177Z,10.47
2023-03-18T05:23:25.611Z,10.51
2023-03-18T05:25:53.910Z,10.45
2023-03-18T05:28:22.465Z,10.50
2023-03-18T05:30:50.729Z,10.52
2023-03-18T05:33:22.082Z,10.51
2023-03-18T05:35:51.703Z,10.56
2023-03-18T05:38:21.390Z,10.60
2023-03-18T05:40:49.943Z,10.67
2023-03-18T05:43:18.376Z,10.71
2023-03-18T05:45:46.836Z,10.71
2023-03-18T05:48:15.432Z,10.69
2023-03-18T05:50:44.285Z,10.66
2023-03-18T05:53:13.261Z,10.66
2023-03-18T05:55:43.400Z,10.63
2023-03-18T05:58:12.638Z,10.60
2023-03-18T06:00:41.659Z,10.61
2023-03-18T06:03:10.264Z,10.63
2023-03-18T06:05:38.607Z,10.74
2023-03-18T06:08:07.293Z,10.77
2023-03-18T06:10:35.755Z,10.78
2023-03-18T06:13:05.957Z,10.83
2023-03-18T06:15:34.413Z,10.90
2023-03-18T06:18:02.741Z,11.01
2023-03-18T06:20:31.004Z,11.16
2023-03-18T06:22:59.884Z,11.29
2023-03-18T06:25:29.001Z,11.41
2023-03-18T06:27:57.350Z,11.45
2023-03-18T06:30:26.922Z,11.51
2023-03-18T06:32:55.243Z,11.63
2023-03-18T06:35:26.552Z,11.76
2023-03-18T06:37:55.301Z,11.92
2023-03-18T06:40:23.969Z,12.00
2023-03-18T06:42:52.318Z,12.01
2023-03-18T06:45:21.311Z,12.07
2023-03-18T06:47:50.989Z,12.15
2023-03-18T06:50:20.677Z,12.25
2023-03-18T06:52:49.451Z,12.46
2023-03-18T06:55:18.044Z,12.67
2023-03-18T06:57:46.612Z,12.88
2023-03-18T07:00:16.075Z,13.09
2023-03-18T07:02:45.805Z,13.16
2023-03-18T07:05:15.522Z,13.31
2023-03-18T07:07:44.431Z,13.44
2023-03-18T07:10:20.323Z,13.68
2023-03-18T07:12:49.026Z,13.97
2023-03-18T07:15:17.895Z,14.08
2023-03-18T07:17:46.622Z,14.17
2023-03-18T07:20:16.608Z,14.35
2023-03-18T07:22:46.887Z,14.39
2023-03-18T07:25:15.593Z,14.54
2023-03-18T07:27:43.888Z,14.57
2023-03-18T07:30:13.729Z,14.60
2023-03-18T07:32:42.082Z,14.70
2023-03-18T07:35:14.117Z,15.00
2023-03-18T07:37:43.803Z,15.32
2023-03-18T07:40:13.253Z,15.46
2023-03-18T07:42:41.574Z,15.53
2023-03-18T07:45:10.900Z,15.87
2023-03-18T07:47:39.832Z,16.06
2023-03-18T07:50:09.120Z,16.36
2023-03-18T07:52:37.531Z,16.52
2023-03-18T07:55:09.161Z,16.83
2023-03-18T07:57:37.969Z,16.95
2023-03-18T08:00:07.388Z,17.04
2023-03-18T08:02:36.199Z,17.21
2023-03-18T08:05:06.847Z,17.36
2023-03-18T08:07:35.797Z,17.56
2023-03-18T08:10:04.374Z,17.75
2023-03-18T08:12:49.474Z,17.96
2023-03-18T08:15:20.810Z,18.18
2023-03-18T08:17:49.177Z,18.36
2023-03-18T08:20:17.532Z,18.60
2023-03-18T08:22:45.979Z,18.88
2023-03-18T08:25:14.327Z,19.13
2023-03-18T08:27:44.065Z,19.29
2023-03-18T08:30:13.804Z,19.33
2023-03-18T08:32:42.278Z,19.50
2023-03-18T08:35:11.586Z,19.55
2023-03-18T08:37:40.135Z,19.63
2023-03-18T08:40:09.938Z,19.71
2023-03-18T08:42:38.226Z,19.80
2023-03-18T08:45:09.725Z,19.75
2023-03-18T08:47:38.068Z,19.81
2023-03-18T08:50:07.109Z,20.04
2023-03-18T08:52:35.440Z,20.12
2023-03-18T08:55:03.745Z,20.21
2023-03-18T08:57:32.037Z,20.28
2023-03-18T09:00:00.568Z,20.42
2023-03-18T09:02:30.220Z,20.58
2023-03-18T09:04:58.701Z,20.74
2023-03-18T09:07:27.109Z,20.84
2023-03-18T09:09:55.402Z,20.94
2023-03-18T09:12:24.591Z,21.02
2023-03-18T09:14:52.852Z,21.18
2023-03-18T09:17:22.346Z,21.40
2023-03-18T09:19:54.823Z,21.54
2023-03-18T09:22:23.991Z,21.83
2023-03-18T09:24:52.589Z,21.75
2023-03-18T09:27:20.871Z,21.72
2023-03-18T09:29:49.630Z,21.80
2023-03-18T09:32:17.882Z,22.22
2023-03-18T09:34:46.502Z,22.15
2023-03-18T09:37:16.425Z,22.00
2023-03-18T09:39:44.737Z,21.88
2023-03-18T09:42:23.351Z,21.74
2023-03-18T09:44:56.147Z,21.16
2023-03-18T09:47:43.904Z,21.72
2023-03-18T09:50:22.472Z,21.88
2023-03-18T09:52:58.267Z,21.78
2023-03-18T09:55:30.320Z,21.99
2023-03-18T09:58:03.132Z,22.07
2023-03-18T10:00:34.180Z,22.12
2023-03-18T10:03:06.443Z,22.08
2023-03-18T10:05:38.158Z,21.79
2023-03-18T10:08:10.530Z,21.76
2023-03-18T10:10:40.198Z,21.96
2023-03-18T10:13:14.495Z,22.07
2023-03-18T10:15:45.605Z,22.61
2023-03-18T10:18:17.020Z,22.18
2023-03-18T10:20:54.454Z,22.31
2023-03-18T10:23:31.866Z,23.03
2023-03-18T10:26:02.993Z,22.81
2023-03-18T10:28:49.251Z,23.02
2023-03-18T10:31:26.411Z,22.97
2023-03-18T10:33:59.075Z,23.16
2023-03-18T10:36:33.713Z,23.53
2023-03-18T10:39:03.880Z,23.60
2023-03-18T10:41:34.207Z,23.54
2023-03-18T10:44:04.563Z,23.67
2023-03-18T10:46:33.841Z,23.71
2023-03-18T10:49:08.466Z,23.82
2023-03-18T10:51:42.647Z,23.97
2023-03-18T10:54:15.288Z,24.28
2023-03-18T10:56:44.014Z,24.34
2023-03-18T10:59:18.074Z,24.22
2023-03-18T11:01:49.885Z,24.06
2023-03-18T11:04:21.554Z,23.96
2023-03-18T11:06:53.302Z,23.97
2023-03-18T11:09:24.652Z,24.06
2023-03-18T11:11:57.967Z,24.07
2023-03-18T11:14:30.605Z,24.12
2023-03-18T11:17:00.208Z,23.78
2023-03-18T11:19:32.307Z,23.96
2023-03-18T11:22:05.580Z,23.57
2023-03-18T11:24:39.679Z,23.80
2023-03-18T11:27:23.980Z,24.04
2023-03-18T11:29:56.533Z,23.84
2023-03-18T11:32:27.730Z,23.90
2023-03-18T11:34:58.225Z,23.88
2023-03-18T11:37:30.809Z,23.85
2023-03-18T11:40:18.454Z,23.64
2023-03-18T11:42:48.716Z,23.82
2023-03-18T11:45:32.170Z,23.65
2023-03-18T11:48:00.747Z,23.76
2023-03-18T11:50:40.561Z,23.98
2023-03-18T11:53:13.418Z,24.15
2023-03-18T11:55:46.764Z,24.19
2023-03-18T11:58:33.065Z,24.39
2023-03-18T12:01:06.792Z,24.25
2023-03-18T12:03:52.483Z,24.26
2023-03-18T12:06:22.437Z,24.39
2023-03-18T12:08:58.856Z,24.44
2023-03-18T12:11:43.112Z,24.63
2023-03-18T12:14:15.931Z,24.52
2023-03-18T12:16:52.262Z,24.44
2023-03-18T12:19:34.105Z,24.28
2023-03-18T12:22:15.417Z,24.56
2023-03-18T12:25:00.049Z,24.70
2023-03-18T12:27:38.590Z,24.43
2023-03-18T12:30:32.660Z,24.50
2023-03-18T12:33:04.781Z,24.73
2023-03-18T12:35:47.750Z,24.74
2023-03-18T12:38:43.900Z,24.80
2023-03-18T12:41:17.538Z,24.75
2023-03-18T12:43:53.470Z,24.58
2023-03-18T12:46:28.829Z,24.25
2023-03-18T12:49:00.465Z,23.81
2023-03-18T12:51:32.158Z,24.32
2023-03-18T12:54:10.336Z,24.73
2023-03-18T12:56:44.456Z,24.84
2023-03-18T12:59:19.654Z,24.96
2023-03-18T13:01:50.702Z,24.27
2023-03-18T13:04:22.323Z,24.69
2023-03-18T13:06:55.646Z,24.93
2023-03-18T13:09:26.733Z,24.58
2023-03-18T13:12:05.198Z,24.92
2023-03-18T13:14:45.863Z,25.10
2023-03-18T13:17:16.622Z,24.95
2023-03-18T13:19:45.145Z,24.60
2023-03-18T13:22:26.468Z,24.91
2023-03-18T13:25:03.866Z,24.53
2023-03-18T13:27:45.654Z,24.79
2023-03-18T13:30:23.848Z,25.07
2023-03-18T13:33:30.670Z,24.90
2023-03-18T13:36:10.435Z,25.15
2023-03-18T13:39:04.668Z,25.34
2023-03-18T13:42:14.687Z,25.40
2023-03-18T13:44:45.208Z,25.12
2023-03-18T13:47:18.960Z,25.15
2023-03-18T13:49:47.725Z,25.26
2023-03-18T13:52:27.833Z,25.56
2023-03-18T13:55:00.946Z,25.50
2023-03-18T13:57:55.357Z,25.54
2023-03-18T14:00:33.328Z,25.75
2023-03-18T14:03:07.700Z,25.30
2023-03-18T14:05:40.366Z,25.53
2023-03-18T14:08:37.125Z,25.45
2023-03-18T14:11:50.403Z,25.29
2023-03-18T14:14:55.439Z,25.45
2023-03-18T14:17:33.735Z,25.85
2023-03-18T14:20:20.421Z,25.80
2023-03-18T14:22:50.399Z,26.04
2023-03-18T14:25:43.464Z,25.73
2023-03-18T14:28:26.524Z,25.59
2023-03-18T14:31:16.575Z,25.87
2023-03-18T14:34:19.618Z,25.87
2023-03-18T14:37:16.170Z,25.49
2023-03-18T14:39:46.294Z,25.52
2023-03-18T14:42:24.554Z,25.58
2023-03-18T14:44:55.743Z,25.53
2023-03-18T14:47:38.169Z,25.63
2023-03-18T14:50:15.294Z,25.33
2023-03-18T14:52:47.984Z,25.45
2023-03-18T14:55:19.477Z,25.48
2023-03-18T14:57:47.951Z,25.47
2023-03-18T15:00:17.922Z,25.57
2023-03-18T15:02:46.915Z,25.89
2023-03-18T15:05:18.411Z,25.89
2023-03-18T15:07:52.752Z,25.98
2023-03-18T15:10:24.530Z,25.82
2023-03-18T15:13:00.851Z,25.66
2023-03-18T15:15:29.265Z,25.56
2023-03-18T15:17:57.582Z,25.68
2023-03-18T15:20:27.209Z,25.00
2023-03-18T15:22:56.804Z,25.03
2023-03-18T15:25:25.080Z,24.52
2023-03-18T15:27:55.184Z,24.61
2023-03-18T15:30:28.506Z,25.18
2023-03-18T15:33:04.569Z,25.33
2023-03-18T15:35:33.189Z,25.17
2023-03-18T15:38:08.352Z,25.32
2023-03-18T15:40:38.061Z,25.56
2023-03-18T15:43:16.859Z,25.74
2023-03-18T15:45:47.492Z,25.36
2023-03-18T15:48:23.916Z,25.53
2023-03-18T15:50:54.064Z,25.45
2023-03-18T15:53:25.661Z,25.59
2023-03-18T15:55:55.501Z,25.46
2023-03-18T15:58:26.903Z,25.63
2023-03-18T16:00:56.381Z,25.52
2023-03-18T16:03:26.211Z,25.39
2023-03-18T16:05:55.234Z,25.38
2023-03-18T16:08:24.837Z,25.42
2023-03-18T16:10:56.531Z,25.00
2023-03-18T16:13:26.989Z,25.02
2023-03-18T16:15:55.000Z,25.03
2023-03-18T16:18:23.860Z,24.80
2023-03-18T16:20:52.923Z,24.85
2023-03-18T16:23:21.534Z,24.76
2023-03-18T16:25:52.889Z,24.53
2023-03-18T16:28:23.049Z,24.48
2023-03-18T16:30:53.329Z,24.52
2023-03-18T16:33:21.930Z,24.61
2023-03-18T16:35:53.825Z,24.54
2023-03-18T16:38:22.127Z,24.42
2023-03-18T16:40:54.303Z,24.25
2023-03-18T16:43:24.282Z,24.29
2023-03-18T16:45:52.671Z,24.22
2023-03-18T16:48:22.324Z,24.15
2023-03-18T16:50:52.485Z,24.11
2023-03-18T16:53:23.389Z,24.03
2023-03-18T16:55:54.967Z,23.92
2023-03-18T16:58:25.574Z,23.80
2023-03-18T17:00:53.955Z,23.68
2023-03-18T17:03:22.290Z,23.57
2023-03-18T17:05:52.015Z,23.49
2023-03-18T17:08:21.725Z,23.37
2023-03-18T17:10:52.279Z,23.24
2023-03-18T17:13:23.331Z,23.07
2023-03-18T17:15:51.868Z,23.00
2023-03-18T17:18:21.605Z,22.87
2023-03-18T17:20:50.024Z,22.79
2023-03-18T17:23:20.437Z,22.70
2023-03-18T17:25:51.796Z,22.59
2023-03-18T17:28:29.862Z,22.48
2023-03-18T17:30:58.161Z,22.37
2023-03-18T17:33:29.068Z,22.23
2023-03-18T17:35:58.024Z,22.11
2023-03-18T17:38:26.447Z,21.93
2023-03-18T17:40:55.458Z,21.87
2023-03-18T17:43:28.613Z,21.78
2023-03-18T17:45:57.779Z,21.61
2023-03-18T17:48:27.642Z,21.45
2023-03-18T17:50:57.873Z,21.32
2023-03-18T17:53:29.157Z,21.24
2023-03-18T17:55:58.057Z,21.15
2023-03-18T17:58:29.908Z,21.07
2023-03-18T18:01:03.437Z,21.00
2023-03-18T18:03:32.818Z,21.01
2023-03-18T18:06:01.389Z,20.88
2023-03-18T18:08:31.594Z,20.76
2023-03-18T18:11:13.184Z,20.62
2023-03-18T18:13:43.176Z,20.44
2023-03-18T18:16:12.206Z,20.20
2023-03-18T18:18:40.472Z,19.95
2023-03-18T18:21:14.693Z,19.71
2023-03-18T18:23:44.859Z,19.48
2023-03-18T18:26:15.165Z,19.23
2023-03-18T18:28:47.294Z,19.06
2023-03-18T18:31:18.061Z,18.91
2023-03-18T18:33:47.045Z,18.79
2023-03-18T18:36:15.761Z,18.65
2023-03-18T18:38:44.292Z,18.54
2023-03-18T18:41:12.683Z,18.46
2023-03-18T18:43:40.926Z,18.39
2023-03-18T18:46:14.874Z,18.32
2023-03-18T18:48:45.333Z,18.24
2023-03-18T18:51:17.152Z,18.14
2023-03-18T18:53:46.349Z,18.00
2023-03-18T18:56:18.558Z,17.95
2023-03-18T18:58:47.233Z,17.86
2023-03-18T19:01:17.086Z,17.77
2023-03-18T19:03:46.052Z,17.69
2023-03-18T19:06:25.576Z,17.64
2023-03-18T19:08:55.130Z,17.62
2023-03-18T19:11:24.660Z,17.54
2023-03-18T19:13:55.031Z,17.46
2023-03-18T19:16:29.702Z,17.41
2023-03-18T19:19:00.609Z,17.35
2023-03-18T19:21:28.929Z,17.29
2023-03-18T19:23:58.140Z,17.16
2023-03-18T19:26:27.147Z,17.15
2023-03-18T19:28:59.445Z,17.26
2023-03-18T19:31:32.285Z,17.21
2023-03-18T19:34:02.184Z,17.12
2023-03-18T19:36:31.914Z,17.01
2023-03-18T19:39:01.674Z,16.91
2023-03-18T19:41:30.563Z,16.81
2023-03-18T19:44:04.106Z,16.73
2023-03-18T19:46:38.598Z,16.63
2023-03-18T19:49:13.091Z,16.58
2023-03-18T19:51:41.560Z,16.55
2023-03-18T19:54:22.442Z,16.51
2023-03-18T19:56:51.241Z,16.49
2023-03-18T19:59:21.902Z,16.48
2023-03-18T20:01:52.105Z,16.42
2023-03-18T20:04:21.547Z,16.36
2023-03-18T20:06:50.543Z,16.31
2023-03-18T20:09:18.808Z,16.22
2023-03-18T20:11:48.013Z,16.16
2023-03-18T20:14:23.402Z,16.07
2023-03-18T20:16:54.621Z,15.98
2023-03-18T20:19:22.969Z,15.92
2023-03-18T20:21:51.302Z,15.87
2023-03-18T20:24:24.724Z,15.83
2023-03-18T20:26:53.002Z,15.78
2023-03-18T20:29:24.030Z,15.72
2023-03-18T20:31:53.796Z,15.63
2023-03-18T20:34:23.124Z,15.58
2023-03-18T20:36:51.786Z,15.49
2023-03-18T20:39:21.856Z,15.43
2023-03-18T20:41:50.546Z,15.36
2023-03-18T20:44:18.816Z,15.28
2023-03-18T20:46:47.071Z,15.22
2023-03-18T20:49:16.673Z,15.14
2023-03-18T20:51:45.670Z,15.09
2023-03-18T20:54:18.855Z,15.11
2023-03-18T20:56:47.712Z,15.07
2023-03-18T20:59:16.095Z,14.98
2023-03-18T21:01:44.441Z,14.90
2023-03-18T21:04:13.886Z,14.85
2023-03-18T21:06:44.410Z,14.81
2023-03-18T21:09:13.924Z,14.77
2023-03-18T21:11:42.181Z,14.72
2023-03-18T21:14:15.504Z,14.67
2023-03-18T21:16:43.804Z,14.63
2023-03-18T21:19:12.667Z,14.59
2023-03-18T21:21:41.237Z,14.59
2023-03-18T21:24:24.673Z,14.54
2023-03-18T21:27:03.782Z,14.46
2023-03-18T21:29:33.411Z,14.38
2023-03-18T21:32:02.688Z,14.33
2023-03-18T21:34:31.274Z,14.28
2023-03-18T21:36:59.672Z,14.24
2023-03-18T21:39:29.892Z,14.23
2023-03-18T21:41:58.496Z,14.22
2023-03-18T21:44:26.787Z,14.24
2023-03-18T21:46:55.170Z,14.26
2023-03-18T21:49:23.424Z,14.27
2023-03-18T21:51:51.765Z,14.28
2023-03-18T21:54:20.895Z,14.28
2023-03-18T21:56:50.630Z,14.28
2023-03-18T21:59:18.956Z,14.27
2023-03-18T22:01:47.280Z,14.27
2023-03-18T22:04:15.641Z,14.23
2023-03-18T22:06:43.978Z,14.20
2023-03-18T22:09:12.224Z,14.17
2023-03-18T22:11:40.665Z,14.14
2023-03-18T22:14:11.974Z,14.10
2023-03-18T22:16:40.256Z,14.04
2023-03-18T22:19:08.626Z,13.96
2023-03-18T22:21:36.891Z,13.89
2023-03-18T22:24:05.759Z,13.88
2023-03-18T22:26:34.066Z,13.86
2023-03-18T22:29:02.312Z,13.85
2023-03-18T22:31:32.512Z,13.83
2023-03-18T22:34:00.961Z,13.77
2023-03-18T22:36:29.643Z,13.74
2023-03-18T22:38:57.889Z,13.73
2023-03-18T22:41:29.313Z,13.72
2023-03-18T22:44:00.070Z,13.71
2023-03-18T22:46:28.749Z,13.70
2023-03-18T22:48:58.530Z,13.68
2023-03-18T22:51:29.355Z,13.66
2023-03-18T22:53:57.674Z,13.63
2023-03-18T22:56:26.183Z,13.59
2023-03-18T22:58:54.399Z,13.58
2023-03-18T23:01:27.788Z,13.67
2023-03-18T23:03:56.144Z,13.69
2023-03-18T23:06:27.211Z,13.76
2023-03-18T23:08:55.832Z,13.75
2023-03-18T23:11:24.224Z,13.63
2023-03-18T23:13:53.274Z,13.46
2023-03-18T23:16:23.612Z,13.30
2023-03-18T23:18:52.098Z,13.38
2023-03-18T23:21:22.044Z,13.43
2023-03-18T23:23:52.438Z,13.51
2023-03-18T23:26:21.579Z,13.50
2023-03-18T23:28:50.092Z,13.49
2023-03-18T23:31:18.558Z,13.46
2023-03-18T23:33:47.214Z,13.47
2023-03-18T23:36:15.721Z,13.48
2023-03-18T23:38:44.184Z,13.51
2023-03-18T23:41:13.895Z,13.57
2023-03-18T23:43:42.116Z,13.59
2023-03-18T23:46:10.424Z,13.62
2023-03-18T23:48:38.714Z,13.61
2023-03-18T23:51:07.159Z,13.62
2023-03-18T23:53:35.487Z,13.47
2023-03-18T23:56:03.938Z,13.63
2023-03-18T23:58:33.720Z,13.63
